sensor_id;sensor_type;location;lat;lon;timestamp;P1;durP1;ratioP1;P2;durP2;ratioP2
16101;SDS011;56411;52.964;10.540;2022-07-29T00:01:14;7.27;;;2.53;;
16101;SDS011;56411;52.964;10.540;2022-07-29T00:03:45;6.13;;;2.23;;
16101;SDS011;56411;52.964;10.540;2022-07-29T00:06:15;5.03;;;2.30;;
16101;SDS011;56411;52.964;10.540;2022-07-29T00:08:44;6.57;;;2.90;;
16101;SDS011;56411;52.964;10.540;2022-07-29T00:11:13;8.70;;;2.60;;
16101;SDS011;56411;52.964;10.540;2022-07-29T00:13:42;6.93;;;2.57;;
16101;SDS011;56411;52.964;10.540;2022-07-29T00:16:10;6.43;;;2.67;;
16101;SDS011;56411;52.964;10.540;2022-07-29T00:18:44;11.37;;;2.80;;
16101;SDS011;56411;52.964;10.540;2022-07-29T00:21:13;10.13;;;3.00;;
16101;SDS011;56411;52.964;10.540;2022-07-29T00:23:46;7.63;;;2.73;;
16101;SDS011;56411;52.964;10.540;2022-07-29T00:26:13;10.37;;;2.73;;
16101;SDS011;56411;52.964;10.540;2022-07-29T00:28:43;6.30;;;2.60;;
16101;SDS011;56411;52.964;10.540;2022-07-29T00:31:10;7.53;;;2.60;;
16101;SDS011;56411;52.964;10.540;2022-07-29T00:33:40;7.47;;;2.80;;
16101;SDS011;56411;52.964;10.540;2022-07-29T00:36:08;7.38;;;2.60;;
16101;SDS011;56411;52.964;10.540;2022-07-29T00:38:34;8.50;;;2.87;;
16101;SDS011;56411;52.964;10.540;2022-07-29T00:41:01;6.23;;;2.60;;
16101;SDS011;56411;52.964;10.540;2022-07-29T00:43:28;7.63;;;2.90;;
16101;SDS011;56411;52.964;10.540;2022-07-29T00:45:55;10.43;;;2.80;;
16101;SDS011;56411;52.964;10.540;2022-07-29T00:48:22;5.00;;;2.47;;
16101;SDS011;56411;52.964;10.540;2022-07-29T00:50:49;7.20;;;2.70;;
16101;SDS011;56411;52.964;10.540;2022-07-29T00:53:17;6.77;;;2.90;;
16101;SDS011;56411;52.964;10.540;2022-07-29T00:55:46;9.88;;;3.00;;
16101;SDS011;56411;52.964;10.540;2022-07-29T00:58:13;7.63;;;2.70;;
16101;SDS011;56411;52.964;10.540;2022-07-29T01:00:40;8.70;;;2.80;;
16101;SDS011;56411;52.964;10.540;2022-07-29T01:03:07;8.10;;;3.00;;
16101;SDS011;56411;52.964;10.540;2022-07-29T01:05:34;7.87;;;3.00;;
16101;SDS011;56411;52.964;10.540;2022-07-29T01:08:02;7.13;;;2.80;;
16101;SDS011;56411;52.964;10.540;2022-07-29T01:10:30;5.40;;;2.90;;
16101;SDS011;56411;52.964;10.540;2022-07-29T01:12:58;9.83;;;3.03;;
16101;SDS011;56411;52.964;10.540;2022-07-29T01:15:27;6.57;;;2.80;;
16101;SDS011;56411;52.964;10.540;2022-07-29T01:17:58;6.87;;;3.10;;
16101;SDS011;56411;52.964;10.540;2022-07-29T01:20:30;8.73;;;3.10;;
16101;SDS011;56411;52.964;10.540;2022-07-29T01:23:15;7.53;;;2.57;;
16101;SDS011;56411;52.964;10.540;2022-07-29T01:26:00;9.80;;;3.20;;
16101;SDS011;56411;52.964;10.540;2022-07-29T01:29:02;9.43;;;2.90;;
16101;SDS011;56411;52.964;10.540;2022-07-29T01:31:35;6.53;;;3.00;;
16101;SDS011;56411;52.964;10.540;2022-07-29T01:34:08;5.43;;;2.70;;
16101;SDS011;56411;52.964;10.540;2022-07-29T01:36:43;10.07;;;3.07;;
16101;SDS011;56411;52.964;10.540;2022-07-29T01:39:12;10.70;;;3.00;;
16101;SDS011;56411;52.964;10.540;2022-07-29T01:41:47;7.75;;;2.90;;
16101;SDS011;56411;52.964;10.540;2022-07-29T01:44:22;5.33;;;2.53;;
16101;SDS011;56411;52.964;10.540;2022-07-29T01:46:58;8.77;;;3.40;;
16101;SDS011;56411;52.964;10.540;2022-07-29T01:49:28;8.40;;;3.00;;
16101;SDS011;56411;52.964;10.540;2022-07-29T01:52:10;7.77;;;3.07;;
16101;SDS011;56411;52.964;10.540;2022-07-29T01:54:42;10.93;;;3.37;;
16101;SDS011;56411;52.964;10.540;2022-07-29T01:57:13;8.77;;;3.20;;
16101;SDS011;56411;52.964;10.540;2022-07-29T01:59:44;8.70;;;3.13;;
16101;SDS011;56411;52.964;10.540;2022-07-29T02:02:13;8.83;;;3.00;;
16101;SDS011;56411;52.964;10.540;2022-07-29T02:04:41;6.73;;;3.00;;
16101;SDS011;56411;52.964;10.540;2022-07-29T02:07:13;7.50;;;2.90;;
16101;SDS011;56411;52.964;10.540;2022-07-29T02:09:44;6.87;;;2.90;;
16101;SDS011;56411;52.964;10.540;2022-07-29T02:12:13;8.17;;;3.00;;
16101;SDS011;56411;52.964;10.540;2022-07-29T02:14:43;13.18;;;3.88;;
16101;SDS011;56411;52.964;10.540;2022-07-29T02:17:13;8.77;;;3.20;;
16101;SDS011;56411;52.964;10.540;2022-07-29T02:19:49;8.67;;;3.20;;
16101;SDS011;56411;52.964;10.540;2022-07-29T02:22:17;7.00;;;2.97;;
16101;SDS011;56411;52.964;10.540;2022-07-29T02:24:46;10.80;;;3.60;;
16101;SDS011;56411;52.964;10.540;2022-07-29T02:27:15;9.90;;;3.13;;
16101;SDS011;56411;52.964;10.540;2022-07-29T02:29:43;9.17;;;2.97;;
16101;SDS011;56411;52.964;10.540;2022-07-29T02:32:13;9.27;;;3.27;;
16101;SDS011;56411;52.964;10.540;2022-07-29T02:34:42;8.50;;;3.10;;
16101;SDS011;56411;52.964;10.540;2022-07-29T02:37:09;8.37;;;3.20;;
16101;SDS011;56411;52.964;10.540;2022-07-29T02:39:37;10.80;;;3.47;;
16101;SDS011;56411;52.964;10.540;2022-07-29T02:42:07;10.93;;;3.67;;
16101;SDS011;56411;52.964;10.540;2022-07-29T02:44:37;8.20;;;3.40;;
16101;SDS011;56411;52.964;10.540;2022-07-29T02:47:07;8.87;;;3.53;;
16101;SDS011;56411;52.964;10.540;2022-07-29T02:49:39;7.47;;;3.00;;
16101;SDS011;56411;52.964;10.540;2022-07-29T02:52:16;9.70;;;3.80;;
16101;SDS011;56411;52.964;10.540;2022-07-29T02:54:49;10.83;;;3.33;;
16101;SDS011;56411;52.964;10.540;2022-07-29T02:57:21;8.93;;;3.53;;
16101;SDS011;56411;52.964;10.540;2022-07-29T02:59:52;10.13;;;3.67;;
16101;SDS011;56411;52.964;10.540;2022-07-29T03:02:23;8.93;;;4.00;;
16101;SDS011;56411;52.964;10.540;2022-07-29T03:04:53;11.87;;;4.77;;
16101;SDS011;56411;52.964;10.540;2022-07-29T03:07:21;12.23;;;4.63;;
16101;SDS011;56411;52.964;10.540;2022-07-29T03:09:48;11.73;;;4.10;;
16101;SDS011;56411;52.964;10.540;2022-07-29T03:12:16;9.83;;;3.80;;
16101;SDS011;56411;52.964;10.540;2022-07-29T03:14:44;10.97;;;3.93;;
16101;SDS011;56411;52.964;10.540;2022-07-29T03:17:12;9.50;;;3.60;;
16101;SDS011;56411;52.964;10.540;2022-07-29T03:19:41;9.10;;;3.53;;
16101;SDS011;56411;52.964;10.540;2022-07-29T03:22:08;6.33;;;3.20;;
16101;SDS011;56411;52.964;10.540;2022-07-29T03:24:36;10.63;;;3.57;;
16101;SDS011;56411;52.964;10.540;2022-07-29T03:27:03;10.90;;;3.80;;
16101;SDS011;56411;52.964;10.540;2022-07-29T03:29:31;9.77;;;3.90;;
16101;SDS011;56411;52.964;10.540;2022-07-29T03:31:58;11.10;;;3.90;;
16101;SDS011;56411;52.964;10.540;2022-07-29T03:34:25;10.70;;;3.87;;
16101;SDS011;56411;52.964;10.540;2022-07-29T03:36:53;8.77;;;4.00;;
16101;SDS011;56411;52.964;10.540;2022-07-29T03:39:21;11.07;;;3.77;;
16101;SDS011;56411;52.964;10.540;2022-07-29T03:41:52;9.20;;;3.83;;
16101;SDS011;56411;52.964;10.540;2022-07-29T03:44:21;8.20;;;3.70;;
16101;SDS011;56411;52.964;10.540;2022-07-29T03:46:48;9.10;;;3.60;;
16101;SDS011;56411;52.964;10.540;2022-07-29T03:49:16;10.87;;;3.70;;
16101;SDS011;56411;52.964;10.540;2022-07-29T03:51:45;7.70;;;3.50;;
16101;SDS011;56411;52.964;10.540;2022-07-29T03:54:14;7.70;;;3.60;;
16101;SDS011;56411;52.964;10.540;2022-07-29T03:56:42;9.83;;;3.80;;
16101;SDS011;56411;52.964;10.540;2022-07-29T03:59:11;9.23;;;3.77;;
16101;SDS011;56411;52.964;10.540;2022-07-29T04:01:40;9.33;;;3.77;;
16101;SDS011;56411;52.964;10.540;2022-07-29T04:04:07;8.83;;;3.80;;
16101;SDS011;56411;52.964;10.540;2022-07-29T04:06:38;10.23;;;3.90;;
16101;SDS011;56411;52.964;10.540;2022-07-29T04:09:06;8.17;;;3.67;;
16101;SDS011;56411;52.964;10.540;2022-07-29T04:11:35;8.55;;;4.07;;
16101;SDS011;56411;52.964;10.540;2022-07-29T04:14:03;10.60;;;3.58;;
16101;SDS011;56411;52.964;10.540;2022-07-29T04:16:30;11.87;;;3.87;;
16101;SDS011;56411;52.964;10.540;2022-07-29T04:18:57;8.63;;;3.70;;
16101;SDS011;56411;52.964;10.540;2022-07-29T04:21:23;10.93;;;3.83;;
16101;SDS011;56411;52.964;10.540;2022-07-29T04:23:50;10.73;;;3.80;;
16101;SDS011;56411;52.964;10.540;2022-07-29T04:26:17;10.20;;;3.90;;
16101;SDS011;56411;52.964;10.540;2022-07-29T04:28:46;8.23;;;3.60;;
16101;SDS011;56411;52.964;10.540;2022-07-29T04:31:13;9.67;;;4.00;;
16101;SDS011;56411;52.964;10.540;2022-07-29T04:33:40;9.77;;;3.73;;
16101;SDS011;56411;52.964;10.540;2022-07-29T04:36:07;7.90;;;3.80;;
16101;SDS011;56411;52.964;10.540;2022-07-29T04:38:36;9.77;;;3.87;;
16101;SDS011;56411;52.964;10.540;2022-07-29T04:41:03;9.27;;;3.90;;
16101;SDS011;56411;52.964;10.540;2022-07-29T04:43:30;9.47;;;3.87;;
16101;SDS011;56411;52.964;10.540;2022-07-29T04:45:58;8.97;;;3.50;;
16101;SDS011;56411;52.964;10.540;2022-07-29T04:48:25;9.83;;;3.53;;
16101;SDS011;56411;52.964;10.540;2022-07-29T04:50:52;10.60;;;3.63;;
16101;SDS011;56411;52.964;10.540;2022-07-29T04:53:19;9.93;;;3.47;;
16101;SDS011;56411;52.964;10.540;2022-07-29T04:55:46;9.77;;;3.80;;
16101;SDS011;56411;52.964;10.540;2022-07-29T04:58:13;10.30;;;3.60;;
16101;SDS011;56411;52.964;10.540;2022-07-29T05:00:40;8.32;;;3.40;;
16101;SDS011;56411;52.964;10.540;2022-07-29T05:03:08;9.98;;;3.67;;
16101;SDS011;56411;52.964;10.540;2022-07-29T05:05:35;10.33;;;3.80;;
16101;SDS011;56411;52.964;10.540;2022-07-29T05:08:02;9.00;;;3.90;;
16101;SDS011;56411;52.964;10.540;2022-07-29T05:10:30;10.97;;;3.63;;
16101;SDS011;56411;52.964;10.540;2022-07-29T05:12:57;8.40;;;3.73;;
16101;SDS011;56411;52.964;10.540;2022-07-29T05:15:24;11.23;;;3.70;;
16101;SDS011;56411;52.964;10.540;2022-07-29T05:17:51;8.73;;;3.50;;
16101;SDS011;56411;52.964;10.540;2022-07-29T05:20:19;10.57;;;3.30;;
16101;SDS011;56411;52.964;10.540;2022-07-29T05:22:51;9.30;;;3.73;;
16101;SDS011;56411;52.964;10.540;2022-07-29T05:25:18;9.13;;;3.83;;
16101;SDS011;56411;52.964;10.540;2022-07-29T05:27:45;11.95;;;4.10;;
16101;SDS011;56411;52.964;10.540;2022-07-29T05:30:12;9.68;;;4.03;;
16101;SDS011;56411;52.964;10.540;2022-07-29T05:32:39;9.63;;;4.20;;
16101;SDS011;56411;52.964;10.540;2022-07-29T05:35:06;10.00;;;3.83;;
16101;SDS011;56411;52.964;10.540;2022-07-29T05:37:35;9.40;;;4.05;;
16101;SDS011;56411;52.964;10.540;2022-07-29T05:40:02;9.50;;;3.60;;
16101;SDS011;56411;52.964;10.540;2022-07-29T05:42:29;9.80;;;3.70;;
16101;SDS011;56411;52.964;10.540;2022-07-29T05:44:56;11.00;;;4.30;;
16101;SDS011;56411;52.964;10.540;2022-07-29T05:47:23;10.60;;;4.60;;
16101;SDS011;56411;52.964;10.540;2022-07-29T05:49:53;11.13;;;4.78;;
16101;SDS011;56411;52.964;10.540;2022-07-29T05:52:20;9.88;;;3.90;;
16101;SDS011;56411;52.964;10.540;2022-07-29T05:54:50;8.55;;;3.85;;
16101;SDS011;56411;52.964;10.540;2022-07-29T05:57:17;9.48;;;3.80;;
16101;SDS011;56411;52.964;10.540;2022-07-29T05:59:45;9.43;;;3.60;;
16101;SDS011;56411;52.964;10.540;2022-07-29T06:02:13;11.25;;;4.05;;
16101;SDS011;56411;52.964;10.540;2022-07-29T06:04:40;9.13;;;3.80;;
16101;SDS011;56411;52.964;10.540;2022-07-29T06:07:07;9.68;;;3.70;;
16101;SDS011;56411;52.964;10.540;2022-07-29T06:09:34;8.80;;;3.60;;
16101;SDS011;56411;52.964;10.540;2022-07-29T06:12:02;9.07;;;3.78;;
16101;SDS011;56411;52.964;10.540;2022-07-29T06:14:30;9.20;;;3.92;;
16101;SDS011;56411;52.964;10.540;2022-07-29T06:16:57;11.32;;;4.10;;
16101;SDS011;56411;52.964;10.540;2022-07-29T06:19:24;8.68;;;3.70;;
16101;SDS011;56411;52.964;10.540;2022-07-29T06:21:51;11.23;;;3.72;;
16101;SDS011;56411;52.964;10.540;2022-07-29T06:24:18;9.02;;;3.70;;
16101;SDS011;56411;52.964;10.540;2022-07-29T06:26:45;7.13;;;3.40;;
16101;SDS011;56411;52.964;10.540;2022-07-29T06:29:13;8.70;;;3.60;;
16101;SDS011;56411;52.964;10.540;2022-07-29T06:31:45;8.38;;;3.22;;
16101;SDS011;56411;52.964;10.540;2022-07-29T06:34:15;9.25;;;4.03;;
16101;SDS011;56411;52.964;10.540;2022-07-29T06:36:42;11.80;;;4.15;;
16101;SDS011;56411;52.964;10.540;2022-07-29T06:39:09;11.43;;;4.45;;
16101;SDS011;56411;52.964;10.540;2022-07-29T06:41:36;10.20;;;4.60;;
16101;SDS011;56411;52.964;10.540;2022-07-29T06:44:03;9.50;;;3.72;;
16101;SDS011;56411;52.964;10.540;2022-07-29T06:46:31;9.20;;;4.03;;
16101;SDS011;56411;52.964;10.540;2022-07-29T06:48:58;10.32;;;3.72;;
16101;SDS011;56411;52.964;10.540;2022-07-29T06:51:26;9.95;;;3.53;;
16101;SDS011;56411;52.964;10.540;2022-07-29T06:53:53;9.93;;;3.85;;
16101;SDS011;56411;52.964;10.540;2022-07-29T06:56:20;8.90;;;3.85;;
16101;SDS011;56411;52.964;10.540;2022-07-29T06:58:47;12.45;;;3.78;;
16101;SDS011;56411;52.964;10.540;2022-07-29T07:01:14;8.68;;;4.10;;
16101;SDS011;56411;52.964;10.540;2022-07-29T07:03:42;9.02;;;3.70;;
16101;SDS011;56411;52.964;10.540;2022-07-29T07:06:09;7.93;;;3.58;;
16101;SDS011;56411;52.964;10.540;2022-07-29T07:08:36;9.35;;;3.80;;
16101;SDS011;56411;52.964;10.540;2022-07-29T07:11:03;6.80;;;3.60;;
16101;SDS011;56411;52.964;10.540;2022-07-29T07:13:32;9.50;;;3.60;;
16101;SDS011;56411;52.964;10.540;2022-07-29T07:15:59;7.63;;;3.45;;
16101;SDS011;56411;52.964;10.540;2022-07-29T07:18:27;9.75;;;3.55;;
16101;SDS011;56411;52.964;10.540;2022-07-29T07:20:56;8.27;;;3.45;;
16101;SDS011;56411;52.964;10.540;2022-07-29T07:23:24;9.25;;;3.30;;
16101;SDS011;56411;52.964;10.540;2022-07-29T07:25:51;7.60;;;3.45;;
16101;SDS011;56411;52.964;10.540;2022-07-29T07:28:18;7.90;;;3.17;;
16101;SDS011;56411;52.964;10.540;2022-07-29T07:30:50;7.50;;;3.58;;
16101;SDS011;56411;52.964;10.540;2022-07-29T07:33:17;7.47;;;3.70;;
16101;SDS011;56411;52.964;10.540;2022-07-29T07:35:44;9.90;;;4.10;;
16101;SDS011;56411;52.964;10.540;2022-07-29T07:38:13;9.98;;;4.10;;
16101;SDS011;56411;52.964;10.540;2022-07-29T07:40:40;7.82;;;3.60;;
16101;SDS011;56411;52.964;10.540;2022-07-29T07:43:07;8.23;;;3.80;;
16101;SDS011;56411;52.964;10.540;2022-07-29T07:45:34;9.90;;;4.45;;
16101;SDS011;56411;52.964;10.540;2022-07-29T07:48:02;9.38;;;3.63;;
16101;SDS011;56411;52.964;10.540;2022-07-29T07:50:29;7.63;;;3.20;;
16101;SDS011;56411;52.964;10.540;2022-07-29T07:52:56;8.30;;;4.07;;
16101;SDS011;56411;52.964;10.540;2022-07-29T07:55:25;8.10;;;3.08;;
16101;SDS011;56411;52.964;10.540;2022-07-29T07:57:52;8.15;;;2.97;;
16101;SDS011;56411;52.964;10.540;2022-07-29T08:00:19;8.55;;;3.10;;
16101;SDS011;56411;52.964;10.540;2022-07-29T08:02:46;11.00;;;3.55;;
16101;SDS011;56411;52.964;10.540;2022-07-29T08:05:14;7.88;;;3.45;;
16101;SDS011;56411;52.964;10.540;2022-07-29T08:07:43;9.77;;;3.20;;
16101;SDS011;56411;52.964;10.540;2022-07-29T08:10:11;8.15;;;3.53;;
16101;SDS011;56411;52.964;10.540;2022-07-29T08:12:40;10.30;;;3.13;;
16101;SDS011;56411;52.964;10.540;2022-07-29T08:15:08;7.22;;;3.10;;
16101;SDS011;56411;52.964;10.540;2022-07-29T08:17:35;7.75;;;3.30;;
16101;SDS011;56411;52.964;10.540;2022-07-29T08:20:02;12.60;;;3.35;;
16101;SDS011;56411;52.964;10.540;2022-07-29T08:22:30;7.20;;;2.78;;
16101;SDS011;56411;52.964;10.540;2022-07-29T08:24:57;8.13;;;2.90;;
16101;SDS011;56411;52.964;10.540;2022-07-29T08:27:24;6.95;;;3.22;;
16101;SDS011;56411;52.964;10.540;2022-07-29T08:29:56;6.47;;;2.92;;
16101;SDS011;56411;52.964;10.540;2022-07-29T08:32:23;9.70;;;2.90;;
16101;SDS011;56411;52.964;10.540;2022-07-29T08:34:50;7.05;;;2.80;;
16101;SDS011;56411;52.964;10.540;2022-07-29T08:37:17;9.27;;;3.28;;
16101;SDS011;56411;52.964;10.540;2022-07-29T08:39:44;7.25;;;3.10;;
16101;SDS011;56411;52.964;10.540;2022-07-29T08:42:11;9.82;;;3.50;;
16101;SDS011;56411;52.964;10.540;2022-07-29T08:44:38;7.30;;;2.80;;
16101;SDS011;56411;52.964;10.540;2022-07-29T08:47:07;7.35;;;3.22;;
16101;SDS011;56411;52.964;10.540;2022-07-29T08:49:34;6.72;;;2.95;;
16101;SDS011;56411;52.964;10.540;2022-07-29T08:52:01;11.20;;;4.60;;
16101;SDS011;56411;52.964;10.540;2022-07-29T08:54:29;7.72;;;3.70;;
16101;SDS011;56411;52.964;10.540;2022-07-29T08:56:56;9.60;;;3.92;;
16101;SDS011;56411;52.964;10.540;2022-07-29T08:59:26;13.45;;;6.07;;
16101;SDS011;56411;52.964;10.540;2022-07-29T09:01:54;11.50;;;5.30;;
16101;SDS011;56411;52.964;10.540;2022-07-29T09:04:25;9.70;;;3.38;;
16101;SDS011;56411;52.964;10.540;2022-07-29T09:06:57;7.35;;;2.80;;
16101;SDS011;56411;52.964;10.540;2022-07-29T09:09:32;7.40;;;3.30;;
16101;SDS011;56411;52.964;10.540;2022-07-29T09:12:02;7.85;;;3.25;;
16101;SDS011;56411;52.964;10.540;2022-07-29T09:14:30;8.90;;;2.92;;
16101;SDS011;56411;52.964;10.540;2022-07-29T09:16:57;8.10;;;2.95;;
16101;SDS011;56411;52.964;10.540;2022-07-29T09:19:29;8.43;;;3.15;;
16101;SDS011;56411;52.964;10.540;2022-07-29T09:21:59;6.47;;;2.72;;
16101;SDS011;56411;52.964;10.540;2022-07-29T09:24:28;6.57;;;2.67;;
16101;SDS011;56411;52.964;10.540;2022-07-29T09:27:07;7.35;;;2.80;;
16101;SDS011;56411;52.964;10.540;2022-07-29T09:29:36;7.72;;;2.92;;
16101;SDS011;56411;52.964;10.540;2022-07-29T09:32:05;6.70;;;2.80;;
16101;SDS011;56411;52.964;10.540;2022-07-29T09:34:37;9.27;;;2.92;;
16101;SDS011;56411;52.964;10.540;2022-07-29T09:37:04;9.20;;;2.83;;
16101;SDS011;56411;52.964;10.540;2022-07-29T09:39:31;11.80;;;2.90;;
16101;SDS011;56411;52.964;10.540;2022-07-29T09:42:00;6.53;;;2.83;;
16101;SDS011;56411;52.964;10.540;2022-07-29T09:44:41;7.20;;;2.70;;
16101;SDS011;56411;52.964;10.540;2022-07-29T09:47:10;7.03;;;2.70;;
16101;SDS011;56411;52.964;10.540;2022-07-29T09:52:28;5.25;;;2.60;;
16101;SDS011;56411;52.964;10.540;2022-07-29T09:55:05;6.70;;;2.78;;
16101;SDS011;56411;52.964;10.540;2022-07-29T09:57:33;6.55;;;2.80;;
16101;SDS011;56411;52.964;10.540;2022-07-29T10:00:03;7.80;;;3.25;;
16101;SDS011;56411;52.964;10.540;2022-07-29T10:02:34;9.48;;;3.20;;
16101;SDS011;56411;52.964;10.540;2022-07-29T10:05:04;8.68;;;3.05;;
16101;SDS011;56411;52.964;10.540;2022-07-29T10:07:44;8.55;;;3.10;;
16101;SDS011;56411;52.964;10.540;2022-07-29T10:10:18;7.15;;;2.75;;
16101;SDS011;56411;52.964;10.540;2022-07-29T10:12:50;7.25;;;2.90;;
16101;SDS011;56411;52.964;10.540;2022-07-29T10:15:20;8.13;;;2.83;;
16101;SDS011;56411;52.964;10.540;2022-07-29T10:17:48;7.57;;;2.60;;
16101;SDS011;56411;52.964;10.540;2022-07-29T10:20:18;7.95;;;2.60;;
16101;SDS011;56411;52.964;10.540;2022-07-29T10:22:46;8.40;;;2.80;;
16101;SDS011;56411;52.964;10.540;2022-07-29T10:25:14;6.50;;;2.50;;
16101;SDS011;56411;52.964;10.540;2022-07-29T10:27:42;5.80;;;2.63;;
16101;SDS011;56411;52.964;10.540;2022-07-29T10:30:10;8.25;;;2.80;;
16101;SDS011;56411;52.964;10.540;2022-07-29T10:32:40;7.25;;;2.97;;
16101;SDS011;56411;52.964;10.540;2022-07-29T10:35:26;6.80;;;2.67;;
16101;SDS011;56411;52.964;10.540;2022-07-29T10:41:24;6.40;;;2.58;;
16101;SDS011;56411;52.964;10.540;2022-07-29T10:44:05;8.90;;;3.17;;
16101;SDS011;56411;52.964;10.540;2022-07-29T10:46:39;9.38;;;3.03;;
16101;SDS011;56411;52.964;10.540;2022-07-29T10:49:08;5.55;;;2.50;;
16101;SDS011;56411;52.964;10.540;2022-07-29T10:51:52;6.05;;;2.20;;
16101;SDS011;56411;52.964;10.540;2022-07-29T10:54:38;6.88;;;2.67;;
16101;SDS011;56411;52.964;10.540;2022-07-29T10:57:12;8.10;;;2.65;;
16101;SDS011;56411;52.964;10.540;2022-07-29T10:59:45;7.30;;;2.95;;
16101;SDS011;56411;52.964;10.540;2022-07-29T11:05:13;9.13;;;2.70;;
16101;SDS011;56411;52.964;10.540;2022-07-29T11:10:44;7.88;;;2.75;;
16101;SDS011;56411;52.964;10.540;2022-07-29T11:13:11;6.32;;;2.50;;
16101;SDS011;56411;52.964;10.540;2022-07-29T11:18:21;8.25;;;2.70;;
16101;SDS011;56411;52.964;10.540;2022-07-29T11:20:48;9.00;;;2.60;;
16101;SDS011;56411;52.964;10.540;2022-07-29T11:23:19;7.07;;;2.40;;
16101;SDS011;56411;52.964;10.540;2022-07-29T11:28:59;9.10;;;2.88;;
16101;SDS011;56411;52.964;10.540;2022-07-29T11:31:36;6.43;;;2.78;;
16101;SDS011;56411;52.964;10.540;2022-07-29T11:34:23;6.90;;;2.50;;
16101;SDS011;56411;52.964;10.540;2022-07-29T11:42:39;4.90;;;2.60;;
16101;SDS011;56411;52.964;10.540;2022-07-29T11:45:15;8.95;;;2.70;;
16101;SDS011;56411;52.964;10.540;2022-07-29T11:48:07;4.88;;;2.30;;
16101;SDS011;56411;52.964;10.540;2022-07-29T11:51:19;7.18;;;2.50;;
16101;SDS011;56411;52.964;10.540;2022-07-29T11:54:06;8.68;;;2.70;;
16101;SDS011;56411;52.964;10.540;2022-07-29T17:18:49;6.47;;;2.80;;
16101;SDS011;56411;52.964;10.540;2022-07-29T17:25:03;10.40;;;4.00;;
16101;SDS011;56411;52.964;10.540;2022-07-29T17:27:31;7.90;;;3.10;;
16101;SDS011;56411;52.964;10.540;2022-07-29T17:29:59;13.70;;;4.25;;
16101;SDS011;56411;52.964;10.540;2022-07-29T17:32:27;11.55;;;3.70;;
16101;SDS011;56411;52.964;10.540;2022-07-29T17:34:54;10.68;;;4.35;;
16101;SDS011;56411;52.964;10.540;2022-07-29T17:37:21;8.93;;;3.00;;
16101;SDS011;56411;52.964;10.540;2022-07-29T17:39:53;14.43;;;5.97;;
16101;SDS011;56411;52.964;10.540;2022-07-29T17:42:20;13.50;;;7.30;;
16101;SDS011;56411;52.964;10.540;2022-07-29T17:44:47;8.77;;;3.85;;
16101;SDS011;56411;52.964;10.540;2022-07-29T17:47:14;8.27;;;3.22;;
16101;SDS011;56411;52.964;10.540;2022-07-29T17:49:42;9.32;;;3.53;;
16101;SDS011;56411;52.964;10.540;2022-07-29T17:52:10;9.20;;;3.38;;
16101;SDS011;56411;52.964;10.540;2022-07-29T17:54:43;15.55;;;5.97;;
16101;SDS011;56411;52.964;10.540;2022-07-29T17:57:18;13.73;;;3.90;;
16101;SDS011;56411;52.964;10.540;2022-07-29T17:59:45;11.55;;;3.42;;
16101;SDS011;56411;52.964;10.540;2022-07-29T18:02:12;9.30;;;3.33;;
16101;SDS011;56411;52.964;10.540;2022-07-29T18:04:39;7.40;;;3.25;;
16101;SDS011;56411;52.964;10.540;2022-07-29T18:07:08;10.95;;;3.63;;
16101;SDS011;56411;52.964;10.540;2022-07-29T18:09:35;9.77;;;3.60;;
16101;SDS011;56411;52.964;10.540;2022-07-29T18:12:02;11.40;;;3.50;;
16101;SDS011;56411;52.964;10.540;2022-07-29T18:14:30;12.88;;;3.80;;
16101;SDS011;56411;52.964;10.540;2022-07-29T18:16:57;12.77;;;3.75;;
16101;SDS011;56411;52.964;10.540;2022-07-29T18:19:24;11.00;;;3.60;;
16101;SDS011;56411;52.964;10.540;2022-07-29T18:21:52;11.52;;;3.92;;
16101;SDS011;56411;52.964;10.540;2022-07-29T18:24:55;9.35;;;3.67;;
16101;SDS011;56411;52.964;10.540;2022-07-29T18:27:33;7.97;;;3.40;;
16101;SDS011;56411;52.964;10.540;2022-07-29T18:30:41;10.18;;;3.97;;
16101;SDS011;56411;52.964;10.540;2022-07-29T18:33:27;9.60;;;3.80;;
16101;SDS011;56411;52.964;10.540;2022-07-29T18:36:01;8.90;;;4.07;;
16101;SDS011;56411;52.964;10.540;2022-07-29T18:38:42;8.00;;;3.75;;
16101;SDS011;56411;52.964;10.540;2022-07-29T18:44:50;10.25;;;3.40;;
16101;SDS011;56411;52.964;10.540;2022-07-29T18:50:13;9.27;;;3.65;;
16101;SDS011;56411;52.964;10.540;2022-07-29T18:53:06;10.68;;;3.70;;
16101;SDS011;56411;52.964;10.540;2022-07-29T18:55:55;10.98;;;4.43;;
16101;SDS011;56411;52.964;10.540;2022-07-29T18:58:50;11.20;;;3.85;;
16101;SDS011;56411;52.964;10.540;2022-07-29T19:04:53;16.05;;;3.95;;
16101;SDS011;56411;52.964;10.540;2022-07-29T19:07:20;15.57;;;4.53;;
16101;SDS011;56411;52.964;10.540;2022-07-29T19:09:49;13.45;;;4.38;;
16101;SDS011;56411;52.964;10.540;2022-07-29T19:12:17;14.50;;;4.30;;
16101;SDS011;56411;52.964;10.540;2022-07-29T19:14:44;15.82;;;5.07;;
16101;SDS011;56411;52.964;10.540;2022-07-29T19:17:11;15.05;;;4.78;;
16101;SDS011;56411;52.964;10.540;2022-07-29T19:19:39;15.27;;;3.97;;
16101;SDS011;56411;52.964;10.540;2022-07-29T19:22:06;10.65;;;4.28;;
16101;SDS011;56411;52.964;10.540;2022-07-29T19:24:33;17.40;;;3.97;;
16101;SDS011;56411;52.964;10.540;2022-07-29T19:27:00;13.57;;;3.67;;
16101;SDS011;56411;52.964;10.540;2022-07-29T19:29:28;10.30;;;3.40;;
16101;SDS011;56411;52.964;10.540;2022-07-29T19:31:56;10.32;;;3.50;;
16101;SDS011;56411;52.964;10.540;2022-07-29T19:34:25;9.43;;;3.13;;
16101;SDS011;56411;52.964;10.540;2022-07-29T19:36:53;11.07;;;3.47;;
16101;SDS011;56411;52.964;10.540;2022-07-29T19:39:21;11.15;;;3.42;;
16101;SDS011;56411;52.964;10.540;2022-07-29T19:41:47;8.38;;;3.03;;
16101;SDS011;56411;52.964;10.540;2022-07-29T19:44:14;9.30;;;3.30;;
16101;SDS011;56411;52.964;10.540;2022-07-29T19:46:41;11.40;;;3.10;;
16101;SDS011;56411;52.964;10.540;2022-07-29T19:49:09;7.88;;;2.90;;
16101;SDS011;56411;52.964;10.540;2022-07-29T19:51:37;11.35;;;3.38;;
16101;SDS011;56411;52.964;10.540;2022-07-29T19:54:07;7.22;;;3.20;;
16101;SDS011;56411;52.964;10.540;2022-07-29T19:56:34;9.00;;;3.30;;
16101;SDS011;56411;52.964;10.540;2022-07-29T19:59:04;10.30;;;3.30;;
16101;SDS011;56411;52.964;10.540;2022-07-29T20:01:31;10.70;;;2.97;;
16101;SDS011;56411;52.964;10.540;2022-07-29T20:04:01;10.32;;;3.53;;
16101;SDS011;56411;52.964;10.540;2022-07-29T20:06:28;9.30;;;3.20;;
16101;SDS011;56411;52.964;10.540;2022-07-29T20:11:52;12.55;;;3.30;;
16101;SDS011;56411;52.964;10.540;2022-07-29T20:14:40;9.18;;;3.20;;
16101;SDS011;56411;52.964;10.540;2022-07-29T20:17:08;12.70;;;3.42;;
16101;SDS011;56411;52.964;10.540;2022-07-29T20:19:36;9.48;;;3.22;;
16101;SDS011;56411;52.964;10.540;2022-07-29T20:22:02;12.07;;;3.55;;
16101;SDS011;56411;52.964;10.540;2022-07-29T20:24:31;7.78;;;3.20;;
16101;SDS011;56411;52.964;10.540;2022-07-29T20:26:58;7.72;;;3.03;;
16101;SDS011;56411;52.964;10.540;2022-07-29T20:29:25;7.63;;;3.17;;
16101;SDS011;56411;52.964;10.540;2022-07-29T20:31:53;8.23;;;3.60;;
16101;SDS011;56411;52.964;10.540;2022-07-29T20:34:20;7.60;;;3.13;;
16101;SDS011;56411;52.964;10.540;2022-07-29T20:36:50;6.97;;;3.38;;
16101;SDS011;56411;52.964;10.540;2022-07-29T20:39:17;10.48;;;3.17;;
16101;SDS011;56411;52.964;10.540;2022-07-29T20:41:49;8.60;;;3.20;;
16101;SDS011;56411;52.964;10.540;2022-07-29T20:44:30;11.93;;;3.60;;
16101;SDS011;56411;52.964;10.540;2022-07-29T20:47:00;8.93;;;3.30;;
16101;SDS011;56411;52.964;10.540;2022-07-29T20:49:30;10.30;;;3.25;;